sensor_id;sensor_type;location;lat;lon;timestamp;P1;durP1;ratioP1;P2;durP2;ratioP2
50104;SDS011;47690;39.202;-77.198;2024-02-04T00:01:34;2.53;;;2.00;;
50104;SDS011;47690;39.202;-77.198;2024-02-04T00:04:23;2.40;;;2.20;;
50104;SDS011;47690;39.202;-77.198;2024-02-04T00:06:52;2.90;;;2.10;;
50104;SDS011;47690;39.202;-77.198;2024-02-04T00:09:20;3.05;;;2.20;;
50104;SDS011;47690;39.202;-77.198;2024-02-04T00:11:50;3.38;;;2.80;;
50104;SDS011;47690;39.202;-77.198;2024-02-04T00:14:19;4.57;;;2.50;;
50104;SDS011;47690;39.202;-77.198;2024-02-04T00:16:48;3.38;;;2.63;;
50104;SDS011;47690;39.202;-77.198;2024-02-04T00:19:16;2.60;;;2.10;;
50104;SDS011;47690;39.202;-77.198;2024-02-04T00:21:44;2.72;;;2.15;;
50104;SDS011;47690;39.202;-77.198;2024-02-04T00:24:13;4.65;;;2.40;;
50104;SDS011;47690;39.202;-77.198;2024-02-04T00:26:41;2.90;;;2.10;;
50104;SDS011;47690;39.202;-77.198;2024-02-04T00:29:10;2.13;;;1.92;;
50104;SDS011;47690;39.202;-77.198;2024-02-04T00:31:39;1.85;;;1.65;;
50104;SDS011;47690;39.202;-77.198;2024-02-04T00:34:08;2.97;;;2.15;;
50104;SDS011;47690;39.202;-77.198;2024-02-04T00:36:37;2.83;;;2.03;;
50104;SDS011;47690;39.202;-77.198;2024-02-04T00:39:06;2.17;;;1.90;;
50104;SDS011;47690;39.202;-77.198;2024-02-04T00:41:35;3.13;;;2.13;;
50104;SDS011;47690;39.202;-77.198;2024-02-04T00:44:03;2.70;;;2.10;;
50104;SDS011;47690;39.202;-77.198;2024-02-04T00:46:33;4.75;;;2.40;;
50104;SDS011;47690;39.202;-77.198;2024-02-04T00:49:02;2.45;;;2.22;;
50104;SDS011;47690;39.202;-77.198;2024-02-04T00:51:31;3.75;;;2.72;;
50104;SDS011;47690;39.202;-77.198;2024-02-04T00:54:01;5.35;;;3.17;;
50104;SDS011;47690;39.202;-77.198;2024-02-04T00:56:30;3.80;;;2.78;;
50104;SDS011;47690;39.202;-77.198;2024-02-04T00:58:58;4.55;;;2.80;;
50104;SDS011;47690;39.202;-77.198;2024-02-04T01:01:27;3.17;;;2.40;;
50104;SDS011;47690;39.202;-77.198;2024-02-04T01:03:57;3.45;;;2.38;;
50104;SDS011;47690;39.202;-77.198;2024-02-04T01:06:25;3.83;;;2.63;;
50104;SDS011;47690;39.202;-77.198;2024-02-04T01:08:59;1.90;;;1.80;;
50104;SDS011;47690;39.202;-77.198;2024-02-04T01:11:28;2.60;;;2.10;;
50104;SDS011;47690;39.202;-77.198;2024-02-04T01:13:58;3.40;;;2.40;;
50104;SDS011;47690;39.202;-77.198;2024-02-04T01:16:28;3.85;;;2.25;;
50104;SDS011;47690;39.202;-77.198;2024-02-04T01:18:59;2.38;;;2.10;;
50104;SDS011;47690;39.202;-77.198;2024-02-04T01:21:28;2.85;;;2.22;;
50104;SDS011;47690;39.202;-77.198;2024-02-04T01:23:57;2.92;;;2.28;;
50104;SDS011;47690;39.202;-77.198;2024-02-04T01:26:26;2.63;;;2.20;;
50104;SDS011;47690;39.202;-77.198;2024-02-04T01:28:54;2.38;;;2.00;;
50104;SDS011;47690;39.202;-77.198;2024-02-04T01:31:23;2.67;;;2.28;;
50104;SDS011;47690;39.202;-77.198;2024-02-04T01:33:52;2.10;;;1.90;;
50104;SDS011;47690;39.202;-77.198;2024-02-04T01:36:21;2.30;;;1.90;;
50104;SDS011;47690;39.202;-77.198;2024-02-04T01:38:49;1.83;;;1.73;;
50104;SDS011;47690;39.202;-77.198;2024-02-04T01:41:19;2.40;;;1.90;;
50104;SDS011;47690;39.202;-77.198;2024-02-04T01:43:47;3.00;;;2.05;;
50104;SDS011;47690;39.202;-77.198;2024-02-04T01:46:16;2.50;;;2.00;;
50104;SDS011;47690;39.202;-77.198;2024-02-04T01:48:45;1.73;;;1.63;;
50104;SDS011;47690;39.202;-77.198;2024-02-04T01:51:14;2.15;;;1.90;;
50104;SDS011;47690;39.202;-77.198;2024-02-04T01:53:45;1.70;;;1.60;;
50104;SDS011;47690;39.202;-77.198;2024-02-04T01:59:04;2.25;;;2.05;;
50104;SDS011;47690;39.202;-77.198;2024-02-04T02:01:33;2.47;;;2.00;;
50104;SDS011;47690;39.202;-77.198;2024-02-04T02:04:03;1.85;;;1.73;;
50104;SDS011;47690;39.202;-77.198;2024-02-04T02:06:33;2.10;;;1.90;;
50104;SDS011;47690;39.202;-77.198;2024-02-04T02:09:09;2.30;;;2.10;;
50104;SDS011;47690;39.202;-77.198;2024-02-04T02:11:42;2.38;;;2.00;;
50104;SDS011;47690;39.202;-77.198;2024-02-04T02:14:16;3.08;;;1.95;;
50104;SDS011;47690;39.202;-77.198;2024-02-04T02:16:51;1.73;;;1.63;;
50104;SDS011;47690;39.202;-77.198;2024-02-04T02:25:02;3.05;;;2.10;;
50104;SDS011;47690;39.202;-77.198;2024-02-04T02:27:33;2.10;;;1.90;;
50104;SDS011;47690;39.202;-77.198;2024-02-04T02:30:02;2.17;;;1.98;;
50104;SDS011;47690;39.202;-77.198;2024-02-04T02:32:30;2.30;;;1.88;;
50104;SDS011;47690;39.202;-77.198;2024-02-04T02:35:03;2.25;;;1.88;;
50104;SDS011;47690;39.202;-77.198;2024-02-04T02:37:34;2.00;;;1.70;;
50104;SDS011;47690;39.202;-77.198;2024-02-04T02:43:01;3.17;;;2.35;;
50104;SDS011;47690;39.202;-77.198;2024-02-04T02:45:32;2.33;;;1.95;;
50104;SDS011;47690;39.202;-77.198;2024-02-04T02:48:02;2.47;;;2.20;;
50104;SDS011;47690;39.202;-77.198;2024-02-04T02:50:35;2.78;;;2.28;;
50104;SDS011;47690;39.202;-77.198;2024-02-04T02:53:04;2.97;;;2.17;;
50104;SDS011;47690;39.202;-77.198;2024-02-04T02:55:33;3.13;;;2.30;;
50104;SDS011;47690;39.202;-77.198;2024-02-04T02:58:02;2.33;;;2.00;;
50104;SDS011;47690;39.202;-77.198;2024-02-04T03:00:33;2.25;;;1.98;;
50104;SDS011;47690;39.202;-77.198;2024-02-04T03:03:02;2.33;;;2.10;;
50104;SDS011;47690;39.202;-77.198;2024-02-04T03:05:31;2.90;;;2.35;;
50104;SDS011;47690;39.202;-77.198;2024-02-04T03:08:02;3.22;;;2.53;;
50104;SDS011;47690;39.202;-77.198;2024-02-04T03:10:32;3.90;;;2.40;;
50104;SDS011;47690;39.202;-77.198;2024-02-04T03:13:04;3.13;;;2.25;;
50104;SDS011;47690;39.202;-77.198;2024-02-04T03:15:34;3.03;;;2.10;;
50104;SDS011;47690;39.202;-77.198;2024-02-04T03:18:03;3.30;;;2.35;;
50104;SDS011;47690;39.202;-77.198;2024-02-04T03:20:32;3.53;;;2.40;;
50104;SDS011;47690;39.202;-77.198;2024-02-04T03:23:01;3.55;;;2.70;;
50104;SDS011;47690;39.202;-77.198;2024-02-04T03:25:33;4.05;;;2.67;;
50104;SDS011;47690;39.202;-77.198;2024-02-04T03:28:03;4.70;;;3.08;;
50104;SDS011;47690;39.202;-77.198;2024-02-04T03:30:33;3.00;;;2.47;;
50104;SDS011;47690;39.202;-77.198;2024-02-04T03:33:03;4.15;;;2.60;;
50104;SDS011;47690;39.202;-77.198;2024-02-04T03:35:33;3.38;;;2.47;;
50104;SDS011;47690;39.202;-77.198;2024-02-04T03:38:04;4.25;;;2.70;;
50104;SDS011;47690;39.202;-77.198;2024-02-04T03:40:36;4.03;;;2.80;;
50104;SDS011;47690;39.202;-77.198;2024-02-04T03:43:05;3.53;;;2.58;;
50104;SDS011;47690;39.202;-77.198;2024-02-04T03:45:37;3.28;;;2.78;;
50104;SDS011;47690;39.202;-77.198;2024-02-04T03:48:07;4.70;;;2.50;;
50104;SDS011;47690;39.202;-77.198;2024-02-04T03:50:36;3.30;;;2.67;;
50104;SDS011;47690;39.202;-77.198;2024-02-04T03:53:04;3.40;;;2.55;;
50104;SDS011;47690;39.202;-77.198;2024-02-04T03:55:33;3.95;;;3.00;;
50104;SDS011;47690;39.202;-77.198;2024-02-04T03:58:02;4.22;;;2.50;;
50104;SDS011;47690;39.202;-77.198;2024-02-04T04:00:32;3.33;;;2.55;;
50104;SDS011;47690;39.202;-77.198;2024-02-04T04:03:03;3.55;;;2.47;;
50104;SDS011;47690;39.202;-77.198;2024-02-04T04:05:33;3.00;;;2.60;;
50104;SDS011;47690;39.202;-77.198;2024-02-04T04:08:02;3.40;;;2.30;;
50104;SDS011;47690;39.202;-77.198;2024-02-04T04:10:32;2.90;;;2.40;;
50104;SDS011;47690;39.202;-77.198;2024-02-04T04:13:03;2.55;;;2.33;;
50104;SDS011;47690;39.202;-77.198;2024-02-04T04:15:33;2.78;;;2.20;;
50104;SDS011;47690;39.202;-77.198;2024-02-04T04:18:03;3.40;;;2.40;;
50104;SDS011;47690;39.202;-77.198;2024-02-04T04:20:34;3.40;;;2.45;;
50104;SDS011;47690;39.202;-77.198;2024-02-04T04:23:03;5.05;;;2.80;;
50104;SDS011;47690;39.202;-77.198;2024-02-04T04:25:34;3.92;;;2.75;;
50104;SDS011;47690;39.202;-77.198;2024-02-04T04:28:03;3.85;;;2.90;;
50104;SDS011;47690;39.202;-77.198;2024-02-04T04:30:33;4.57;;;2.92;;
50104;SDS011;47690;39.202;-77.198;2024-02-04T04:33:04;4.15;;;2.75;;
50104;SDS011;47690;39.202;-77.198;2024-02-04T04:35:34;3.58;;;2.90;;
50104;SDS011;47690;39.202;-77.198;2024-02-04T04:38:02;3.38;;;2.83;;
50104;SDS011;47690;39.202;-77.198;2024-02-04T04:40:31;3.88;;;2.78;;
50104;SDS011;47690;39.202;-77.198;2024-02-04T04:43:00;4.05;;;2.70;;
50104;SDS011;47690;39.202;-77.198;2024-02-04T04:45:31;3.58;;;2.78;;
50104;SDS011;47690;39.202;-77.198;2024-02-04T04:48:00;4.75;;;3.30;;
50104;SDS011;47690;39.202;-77.198;2024-02-04T04:50:32;4.68;;;3.20;;
50104;SDS011;47690;39.202;-77.198;2024-02-04T04:53:00;5.57;;;3.67;;
50104;SDS011;47690;39.202;-77.198;2024-02-04T04:55:31;5.28;;;3.35;;
50104;SDS011;47690;39.202;-77.198;2024-02-04T04:58:00;5.80;;;3.45;;
50104;SDS011;47690;39.202;-77.198;2024-02-04T05:00:32;6.97;;;3.63;;
50104;SDS011;47690;39.202;-77.198;2024-02-04T05:03:02;6.13;;;3.92;;
50104;SDS011;47690;39.202;-77.198;2024-02-04T05:05:32;8.35;;;4.28;;
50104;SDS011;47690;39.202;-77.198;2024-02-04T05:08:00;5.90;;;3.97;;
50104;SDS011;47690;39.202;-77.198;2024-02-04T05:10:32;6.93;;;3.85;;
50104;SDS011;47690;39.202;-77.198;2024-02-04T05:13:02;5.78;;;3.90;;
50104;SDS011;47690;39.202;-77.198;2024-02-04T05:25:20;3.72;;;2.70;;
50104;SDS011;47690;39.202;-77.198;2024-02-04T05:27:49;4.60;;;3.38;;
50104;SDS011;47690;39.202;-77.198;2024-02-04T05:30:17;4.00;;;3.08;;
50104;SDS011;47690;39.202;-77.198;2024-02-04T05:32:47;3.50;;;2.80;;
50104;SDS011;47690;39.202;-77.198;2024-02-04T05:35:16;3.70;;;2.75;;
50104;SDS011;47690;39.202;-77.198;2024-02-04T05:37:44;3.90;;;2.90;;
50104;SDS011;47690;39.202;-77.198;2024-02-04T05:40:13;3.13;;;2.65;;
50104;SDS011;47690;39.202;-77.198;2024-02-04T05:42:45;3.35;;;2.58;;
50104;SDS011;47690;39.202;-77.198;2024-02-04T05:45:14;5.13;;;2.90;;
50104;SDS011;47690;39.202;-77.198;2024-02-04T05:47:43;5.28;;;2.90;;
50104;SDS011;47690;39.202;-77.198;2024-02-04T05:50:12;4.05;;;2.70;;
50104;SDS011;47690;39.202;-77.198;2024-02-04T05:52:41;4.15;;;3.13;;
50104;SDS011;47690;39.202;-77.198;2024-02-04T05:55:10;3.42;;;2.80;;
50104;SDS011;47690;39.202;-77.198;2024-02-04T05:57:39;3.15;;;2.55;;
50104;SDS011;47690;39.202;-77.198;2024-02-04T06:00:08;3.42;;;2.50;;
50104;SDS011;47690;39.202;-77.198;2024-02-04T06:02:41;3.38;;;2.70;;
50104;SDS011;47690;39.202;-77.198;2024-02-04T06:05:13;4.20;;;2.83;;
50104;SDS011;47690;39.202;-77.198;2024-02-04T06:07:42;5.07;;;3.33;;
50104;SDS011;47690;39.202;-77.198;2024-02-04T06:10:11;6.00;;;3.20;;
50104;SDS011;47690;39.202;-77.198;2024-02-04T06:12:40;4.50;;;3.05;;
50104;SDS011;47690;39.202;-77.198;2024-02-04T06:15:13;5.47;;;3.03;;
50104;SDS011;47690;39.202;-77.198;2024-02-04T06:17:42;4.15;;;2.88;;
50104;SDS011;47690;39.202;-77.198;2024-02-04T06:20:11;3.47;;;2.85;;
50104;SDS011;47690;39.202;-77.198;2024-02-04T06:22:39;4.00;;;2.90;;
50104;SDS011;47690;39.202;-77.198;2024-02-04T06:25:07;3.72;;;2.80;;
50104;SDS011;47690;39.202;-77.198;2024-02-04T06:27:36;4.47;;;2.92;;
50104;SDS011;47690;39.202;-77.198;2024-02-04T06:30:05;4.38;;;3.13;;
50104;SDS011;47690;39.202;-77.198;2024-02-04T06:32:40;4.05;;;3.03;;
50104;SDS011;47690;39.202;-77.198;2024-02-04T06:35:09;4.22;;;3.10;;
50104;SDS011;47690;39.202;-77.198;2024-02-04T06:37:42;5.22;;;3.42;;
50104;SDS011;47690;39.202;-77.198;2024-02-04T06:40:13;6.65;;;4.20;;
50104;SDS011;47690;39.202;-77.198;2024-02-04T06:42:42;6.15;;;4.10;;
50104;SDS011;47690;39.202;-77.198;2024-02-04T06:45:11;5.75;;;3.95;;
50104;SDS011;47690;39.202;-77.198;2024-02-04T06:47:39;5.55;;;3.80;;
50104;SDS011;47690;39.202;-77.198;2024-02-04T06:50:11;4.20;;;3.08;;
50104;SDS011;47690;39.202;-77.198;2024-02-04T06:52:43;4.22;;;3.03;;
50104;SDS011;47690;39.202;-77.198;2024-02-04T06:55:13;4.18;;;3.10;;
50104;SDS011;47690;39.202;-77.198;2024-02-04T06:57:41;4.53;;;3.03;;
50104;SDS011;47690;39.202;-77.198;2024-02-04T07:00:10;4.22;;;2.88;;
50104;SDS011;47690;39.202;-77.198;2024-02-04T07:02:39;4.57;;;3.30;;
50104;SDS011;47690;39.202;-77.198;2024-02-04T07:05:08;4.07;;;3.00;;
50104;SDS011;47690;39.202;-77.198;2024-02-04T07:07:38;4.00;;;2.92;;
50104;SDS011;47690;39.202;-77.198;2024-02-04T07:10:06;4.18;;;2.85;;
50104;SDS011;47690;39.202;-77.198;2024-02-04T07:12:35;4.10;;;3.05;;
50104;SDS011;47690;39.202;-77.198;2024-02-04T07:15:04;5.53;;;3.50;;
50104;SDS011;47690;39.202;-77.198;2024-02-04T07:17:33;6.20;;;3.58;;
50104;SDS011;47690;39.202;-77.198;2024-02-04T07:20:02;3.90;;;2.88;;
50104;SDS011;47690;39.202;-77.198;2024-02-04T07:22:33;3.60;;;2.95;;
50104;SDS011;47690;39.202;-77.198;2024-02-04T07:25:04;3.67;;;2.85;;
50104;SDS011;47690;39.202;-77.198;2024-02-04T07:27:33;3.22;;;2.60;;
50104;SDS011;47690;39.202;-77.198;2024-02-04T07:30:02;3.20;;;2.58;;
50104;SDS011;47690;39.202;-77.198;2024-02-04T07:32:32;3.45;;;2.60;;
50104;SDS011;47690;39.202;-77.198;2024-02-04T07:35:07;3.05;;;2.60;;
50104;SDS011;47690;39.202;-77.198;2024-02-04T07:37:37;4.35;;;3.05;;
50104;SDS011;47690;39.202;-77.198;2024-02-04T07:40:06;4.75;;;2.97;;
50104;SDS011;47690;39.202;-77.198;2024-02-04T07:42:35;3.75;;;2.80;;
50104;SDS011;47690;39.202;-77.198;2024-02-04T07:45:03;3.78;;;3.00;;
50104;SDS011;47690;39.202;-77.198;2024-02-04T07:47:37;3.45;;;2.70;;
50104;SDS011;47690;39.202;-77.198;2024-02-04T07:50:05;2.88;;;2.58;;
50104;SDS011;47690;39.202;-77.198;2024-02-04T07:52:35;3.67;;;2.85;;
50104;SDS011;47690;39.202;-77.198;2024-02-04T07:55:07;3.75;;;2.90;;
50104;SDS011;47690;39.202;-77.198;2024-02-04T07:57:35;3.20;;;2.70;;
50104;SDS011;47690;39.202;-77.198;2024-02-04T08:00:05;4.35;;;2.92;;
50104;SDS011;47690;39.202;-77.198;2024-02-04T08:02:40;3.45;;;2.67;;
50104;SDS011;47690;39.202;-77.198;2024-02-04T08:05:08;5.47;;;2.70;;
50104;SDS011;47690;39.202;-77.198;2024-02-04T08:07:37;4.25;;;2.80;;
50104;SDS011;47690;39.202;-77.198;2024-02-04T08:10:05;3.78;;;2.80;;
50104;SDS011;47690;39.202;-77.198;2024-02-04T08:12:35;3.78;;;2.75;;
50104;SDS011;47690;39.202;-77.198;2024-02-04T08:15:04;4.53;;;3.05;;
50104;SDS011;47690;39.202;-77.198;2024-02-04T08:17:33;4.35;;;2.90;;
50104;SDS011;47690;39.202;-77.198;2024-02-04T08:20:03;3.60;;;2.83;;
50104;SDS011;47690;39.202;-77.198;2024-02-04T08:22:32;3.28;;;2.80;;
50104;SDS011;47690;39.202;-77.198;2024-02-04T08:25:02;3.53;;;2.67;;
50104;SDS011;47690;39.202;-77.198;2024-02-04T08:27:33;3.15;;;2.65;;
50104;SDS011;47690;39.202;-77.198;2024-02-04T08:30:02;4.32;;;2.92;;
50104;SDS011;47690;39.202;-77.198;2024-02-04T08:32:33;4.15;;;2.90;;
50104;SDS011;47690;39.202;-77.198;2024-02-04T08:35:02;4.43;;;3.08;;
50104;SDS011;47690;39.202;-77.198;2024-02-04T08:37:32;3.63;;;2.88;;
50104;SDS011;47690;39.202;-77.198;2024-02-04T08:40:05;4.10;;;3.10;;
50104;SDS011;47690;39.202;-77.198;2024-02-04T08:42:34;3.75;;;2.80;;
50104;SDS011;47690;39.202;-77.198;2024-02-04T08:45:03;3.95;;;2.83;;
50104;SDS011;47690;39.202;-77.198;2024-02-04T08:47:32;3.92;;;2.90;;
50104;SDS011;47690;39.202;-77.198;2024-02-04T08:50:03;3.25;;;2.75;;
50104;SDS011;47690;39.202;-77.198;2024-02-04T08:52:32;4.80;;;2.97;;
50104;SDS011;47690;39.202;-77.198;2024-02-04T08:55:02;3.85;;;2.92;;
50104;SDS011;47690;39.202;-77.198;2024-02-04T08:57:32;3.42;;;2.95;;
50104;SDS011;47690;39.202;-77.198;2024-02-04T09:00:02;3.90;;;3.08;;
50104;SDS011;47690;39.202;-77.198;2024-02-04T09:02:33;3.65;;;2.83;;
50104;SDS011;47690;39.202;-77.198;2024-02-04T09:05:02;3.08;;;2.53;;
50104;SDS011;47690;39.202;-77.198;2024-02-04T09:07:32;3.35;;;2.50;;
50104;SDS011;47690;39.202;-77.198;2024-02-04T09:10:03;3.60;;;2.67;;
50104;SDS011;47690;39.202;-77.198;2024-02-04T09:12:32;3.63;;;2.80;;
50104;SDS011;47690;39.202;-77.198;2024-02-04T09:15:06;3.30;;;2.75;;
50104;SDS011;47690;39.202;-77.198;2024-02-04T09:17:36;3.75;;;2.90;;
50104;SDS011;47690;39.202;-77.198;2024-02-04T09:20:05;3.47;;;3.17;;
50104;SDS011;47690;39.202;-77.198;2024-02-04T09:22:35;4.18;;;2.85;;
50104;SDS011;47690;39.202;-77.198;2024-02-04T09:25:04;3.33;;;2.90;;
50104;SDS011;47690;39.202;-77.198;2024-02-04T09:27:33;4.05;;;2.95;;
50104;SDS011;47690;39.202;-77.198;2024-02-04T09:30:03;3.72;;;2.95;;
50104;SDS011;47690;39.202;-77.198;2024-02-04T09:32:33;3.33;;;2.63;;
50104;SDS011;47690;39.202;-77.198;2024-02-04T09:35:04;4.97;;;3.00;;
50104;SDS011;47690;39.202;-77.198;2024-02-04T09:37:34;3.95;;;3.10;;
50104;SDS011;47690;39.202;-77.198;2024-02-04T09:40:06;3.38;;;2.95;;
50104;SDS011;47690;39.202;-77.198;2024-02-04T09:42:35;3.63;;;2.90;;
50104;SDS011;47690;39.202;-77.198;2024-02-04T09:45:04;3.47;;;2.60;;
50104;SDS011;47690;39.202;-77.198;2024-02-04T09:47:33;3.75;;;2.78;;
50104;SDS011;47690;39.202;-77.198;2024-02-04T09:50:03;3.40;;;2.85;;
50104;SDS011;47690;39.202;-77.198;2024-02-04T09:52:33;3.83;;;2.97;;
50104;SDS011;47690;39.202;-77.198;2024-02-04T09:55:03;4.00;;;2.75;;
50104;SDS011;47690;39.202;-77.198;2024-02-04T09:57:35;3.22;;;2.47;;
50104;SDS011;47690;39.202;-77.198;2024-02-04T10:00:04;2.65;;;2.42;;
50104;SDS011;47690;39.202;-77.198;2024-02-04T10:02:38;4.05;;;2.80;;
50104;SDS011;47690;39.202;-77.198;2024-02-04T10:05:08;4.50;;;3.03;;
50104;SDS011;47690;39.202;-77.198;2024-02-04T10:07:38;3.97;;;2.90;;
50104;SDS011;47690;39.202;-77.198;2024-02-04T10:10:08;3.47;;;2.72;;
50104;SDS011;47690;39.202;-77.198;2024-02-04T10:12:37;4.00;;;2.80;;
50104;SDS011;47690;39.202;-77.198;2024-02-04T10:15:09;4.57;;;2.92;;
50104;SDS011;47690;39.202;-77.198;2024-02-04T10:17:41;3.45;;;2.63;;
50104;SDS011;47690;39.202;-77.198;2024-02-04T10:20:15;3.60;;;2.70;;
50104;SDS011;47690;39.202;-77.198;2024-02-04T10:22:47;4.25;;;2.70;;
50104;SDS011;47690;39.202;-77.198;2024-02-04T10:25:19;3.60;;;2.63;;
50104;SDS011;47690;39.202;-77.198;2024-02-04T10:27:48;4.20;;;3.05;;
50104;SDS011;47690;39.202;-77.198;2024-02-04T10:30:21;3.65;;;2.75;;
50104;SDS011;47690;39.202;-77.198;2024-02-04T10:32:51;3.63;;;2.97;;
50104;SDS011;47690;39.202;-77.198;2024-02-04T10:35:20;3.42;;;2.60;;
50104;SDS011;47690;39.202;-77.198;2024-02-04T10:37:51;3.65;;;2.65;;
50104;SDS011;47690;39.202;-77.198;2024-02-04T10:40:20;3.15;;;2.58;;
50104;SDS011;47690;39.202;-77.198;2024-02-04T10:42:49;3.13;;;2.60;;
50104;SDS011;47690;39.202;-77.198;2024-02-04T10:45:23;3.60;;;3.00;;
50104;SDS011;47690;39.202;-77.198;2024-02-04T10:47:59;2.65;;;2.40;;
50104;SDS011;47690;39.202;-77.198;2024-02-04T10:50:32;3.30;;;2.65;;
50104;SDS011;47690;39.202;-77.198;2024-02-04T10:53:04;3.53;;;2.60;;
50104;SDS011;47690;39.202;-77.198;2024-02-04T10:55:39;3.78;;;2.60;;
50104;SDS011;47690;39.202;-77.198;2024-02-04T10:58:11;3.15;;;2.63;;
50104;SDS011;47690;39.202;-77.198;2024-02-04T11:00:44;3.05;;;2.50;;
50104;SDS011;47690;39.202;-77.198;2024-02-04T11:03:14;3.60;;;2.70;;
50104;SDS011;47690;39.202;-77.198;2024-02-04T11:05:47;3.08;;;2.47;;
50104;SDS011;47690;39.202;-77.198;2024-02-04T11:08:18;3.47;;;2.55;;
50104;SDS011;47690;39.202;-77.198;2024-02-04T11:10:46;4.07;;;2.90;;
50104;SDS011;47690;39.202;-77.198;2024-02-04T11:13:15;4.32;;;2.95;;
50104;SDS011;47690;39.202;-77.198;2024-02-04T11:15:44;3.78;;;2.90;;
50104;SDS011;47690;39.202;-77.198;2024-02-04T11:21:24;3.25;;;2.60;;
50104;SDS011;47690;39.202;-77.198;2024-02-04T11:24:17;3.20;;;2.50;;
50104;SDS011;47690;39.202;-77.198;2024-02-04T11:29:32;2.80;;;2.33;;
50104;SDS011;47690;39.202;-77.198;2024-02-04T11:32:05;3.20;;;2.50;;
50104;SDS011;47690;39.202;-77.198;2024-02-04T11:34:35;4.22;;;2.63;;
50104;SDS011;47690;39.202;-77.198;2024-02-04T11:37:17;3.95;;;2.33;;
50104;SDS011;47690;39.202;-77.198;2024-02-04T11:39:54;2.53;;;2.28;;
50104;SDS011;47690;39.202;-77.198;2024-02-04T11:42:31;3.67;;;2.38;;
50104;SDS011;47690;39.202;-77.198;2024-02-04T11:45:12;2.80;;;2.40;;
50104;SDS011;47690;39.202;-77.198;2024-02-04T11:47:42;2.78;;;2.40;;
50104;SDS011;47690;39.202;-77.198;2024-02-04T11:50:10;2.63;;;2.20;;
50104;SDS011;47690;39.202;-77.198;2024-02-04T11:52:40;2.40;;;2.20;;
50104;SDS011;47690;39.202;-77.198;2024-02-04T11:55:18;2.63;;;2.10;;
50104;SDS011;47690;39.202;-77.198;2024-02-04T11:57:47;3.47;;;2.10;;
50104;SDS011;47690;39.202;-77.198;2024-02-04T12:00:17;3.70;;;2.40;;
50104;SDS011;47690;39.202;-77.198;2024-02-04T12:02:46;2.28;;;2.05;;
50104;SDS011;47690;39.202;-77.198;2024-02-04T12:05:15;2.80;;;2.35;;
50104;SDS011;47690;39.202;-77.198;2024-02-04T12:07:44;3.42;;;2.42;;
50104;SDS011;47690;39.202;-77.198;2024-02-04T12:10:13;2.65;;;2.20;;
50104;SDS011;47690;39.202;-77.198;2024-02-04T12:12:43;2.70;;;2.30;;
50104;SDS011;47690;39.202;-77.198;2024-02-04T12:15:11;2.58;;;2.35;;
50104;SDS011;47690;39.202;-77.198;2024-02-04T12:17:41;2.65;;;2.40;;
50104;SDS011;47690;39.202;-77.198;2024-02-04T12:20:10;2.40;;;2.20;;
50104;SDS011;47690;39.202;-77.198;2024-02-04T12:22:40;3.72;;;2.60;;
50104;SDS011;47690;39.202;-77.198;2024-02-04T12:25:08;2.85;;;2.30;;
50104;SDS011;47690;39.202;-77.198;2024-02-04T12:27:37;2.40;;;2.17;;
50104;SDS011;47690;39.202;-77.198;2024-02-04T12:30:06;2.72;;;2.30;;
50104;SDS011;47690;39.202;-77.198;2024-02-04T12:32:36;3.03;;;2.50;;
50104;SDS011;47690;39.202;-77.198;2024-02-04T12:35:15;3.72;;;2.72;;
50104;SDS011;47690;39.202;-77.198;2024-02-04T12:37:51;3.40;;;2.42;;
50104;SDS011;47690;39.202;-77.198;2024-02-04T12:40:23;2.42;;;2.03;;
50104;SDS011;47690;39.202;-77.198;2024-02-04T12:43:00;3.75;;;2.58;;
50104;SDS011;47690;39.202;-77.198;2024-02-04T12:45:33;2.40;;;2.10;;
50104;SDS011;47690;39.202;-77.198;2024-02-04T12:48:03;2.55;;;2.10;;
50104;SDS011;47690;39.202;-77.198;2024-02-04T12:50:36;2.75;;;2.20;;
50104;SDS011;47690;39.202;-77.198;2024-02-04T12:53:07;2.63;;;2.13;;
50104;SDS011;47690;39.202;-77.198;2024-02-04T12:55:39;2.72;;;2.28;;
50104;SDS011;47690;39.202;-77.198;2024-02-04T12:58:11;3.30;;;2.55;;
50104;SDS011;47690;39.202;-77.198;2024-02-04T13:00:46;2.53;;;2.20;;
50104;SDS011;47690;39.202;-77.198;2024-02-04T13:03:16;2.97;;;2.40;;
50104;SDS011;47690;39.202;-77.198;2024-02-04T13:05:45;3.00;;;2.47;;
50104;SDS011;47690;39.202;-77.198;2024-02-04T13:08:18;3.72;;;2.45;;
50104;SDS011;47690;39.202;-77.198;2024-02-04T13:11:08;2.53;;;2.25;;
50104;SDS011;47690;39.202;-77.198;2024-02-04T13:15:54;3.28;;;2.40;;
50104;SDS011;47690;39.202;-77.198;2024-02-04T13:18:22;2.85;;;2.20;;
50104;SDS011;47690;39.202;-77.198;2024-02-04T13:20:51;2.47;;;2.20;;
50104;SDS011;47690;39.202;-77.198;2024-02-04T13:23:19;3.42;;;2.10;;
50104;SDS011;47690;39.202;-77.198;2024-02-04T13:25:47;2.70;;;2.20;;
50104;SDS011;47690;39.202;-77.198;2024-02-04T13:28:16;2.30;;;2.10;;
50104;SDS011;47690;39.202;-77.198;2024-02-04T13:30:46;2.38;;;2.00;;
50104;SDS011;47690;39.202;-77.198;2024-02-04T13:33:14;2.17;;;1.98;;
50104;SDS011;47690;39.202;-77.198;2024-02-04T13:35:44;1.85;;;1.75;;
50104;SDS011;47690;39.202;-77.198;2024-02-04T13:38:14;2.58;;;2.15;;
50104;SDS011;47690;39.202;-77.198;2024-02-04T13:40:42;2.63;;;2.17;;
50104;SDS011;47690;39.202;-77.198;2024-02-04T13:43:11;2.22;;;2.03;;
50104;SDS011;47690;39.202;-77.198;2024-02-04T13:45:39;2.45;;;2.25;;
50104;SDS011;47690;39.202;-77.198;2024-02-04T13:48:08;2.17;;;2.00;;
50104;SDS011;47690;39.202;-77.198;2024-02-04T13:50:40;2.30;;;1.90;;
50104;SDS011;47690;39.202;-77.198;2024-02-04T13:53:12;2.88;;;1.98;;
50104;SDS011;47690;39.202;-77.198;2024-02-04T13:55:41;2.25;;;2.05;;
50104;SDS011;47690;39.202;-77.198;2024-02-04T13:58:11;2.75;;;2.00;;
50104;SDS011;47690;39.202;-77.198;2024-02-04T14:00:39;2.70;;;2.38;;
50104;SDS011;47690;39.202;-77.198;2024-02-04T14:03:08;2.70;;;2.00;;
50104;SDS011;47690;39.202;-77.198;2024-02-04T14:05:36;1.98;;;1.80;;
50104;SDS011;47690;39.202;-77.198;2024-02-04T14:08:05;2.55;;;2.20;;
50104;SDS011;47690;39.202;-77.198;2024-02-04T14:10:34;2.10;;;1.90;;
50104;SDS011;47690;39.202;-77.198;2024-02-04T14:13:06;2.03;;;1.90;;
50104;SDS011;47690;39.202;-77.198;2024-02-04T14:15:38;2.47;;;1.80;;
50104;SDS011;47690;39.202;-77.198;2024-02-04T14:18:07;2.10;;;1.90;;
50104;SDS011;47690;39.202;-77.198;2024-02-04T14:20:36;2.40;;;2.17;;
50104;SDS011;47690;39.202;-77.198;2024-02-04T14:23:05;1.77;;;1.67;;
50104;SDS011;47690;39.202;-77.198;2024-02-04T14:25:34;2.60;;;2.28;;
50104;SDS011;47690;39.202;-77.198;2024-02-04T14:28:04;1.85;;;1.73;;
50104;SDS011;47690;39.202;-77.198;2024-02-04T14:30:35;2.15;;;1.95;;
50104;SDS011;47690;39.202;-77.198;2024-02-04T14:33:04;1.80;;;1.60;;
50104;SDS011;47690;39.202;-77.198;2024-02-04T14:35:33;2.13;;;1.90;;
50104;SDS011;47690;39.202;-77.198;2024-02-04T14:38:02;2.15;;;1.95;;
50104;SDS011;47690;39.202;-77.198;2024-02-04T14:40:31;1.90;;;1.80;;
50104;SDS011;47690;39.202;-77.198;2024-02-04T14:43:00;1.70;;;1.60;;
50104;SDS011;47690;39.202;-77.198;2024-02-04T14:45:30;1.90;;;1.70;;
50104;SDS011;47690;39.202;-77.198;2024-02-04T14:48:01;1.92;;;1.80;;
50104;SDS011;47690;39.202;-77.198;2024-02-04T14:50:32;2.42;;;1.90;;
50104;SDS011;47690;39.202;-77.198;2024-02-04T14:53:03;1.75;;;1.65;;
50104;SDS011;47690;39.202;-77.198;2024-02-04T14:55:33;2.00;;;1.80;;
50104;SDS011;47690;39.202;-77.198;2024-02-04T14:58:03;2.05;;;1.85;;
50104;SDS011;47690;39.202;-77.198;2024-02-04T15:00:33;1.67;;;1.58;;
50104;SDS011;47690;39.202;-77.198;2024-02-04T15:03:03;1.65;;;1.55;;
50104;SDS011;47690;39.202;-77.198;2024-02-04T15:05:33;1.83;;;1.70;;
50104;SDS011;47690;39.202;-77.198;2024-02-04T15:08:02;1.60;;;1.50;;